sensor_id;sensor_type;location;lat;lon;timestamp;temperature;humidity
54260;DHT22;40172;53.022;7.012;2023-04-28T00:01:41;5.50;99.90
54260;DHT22;40172;53.022;7.012;2023-04-28T00:04:07;5.50;99.90
54260;DHT22;40172;53.022;7.012;2023-04-28T00:06:32;5.40;99.90
54260;DHT22;40172;53.022;7.012;2023-04-28T00:08:58;5.40;99.90
54260;DHT22;40172;53.022;7.012;2023-04-28T00:11:24;5.40;99.90
54260;DHT22;40172;53.022;7.012;2023-04-28T00:13:50;5.40;99.90
54260;DHT22;40172;53.022;7.012;2023-04-28T00:16:16;5.40;99.90
54260;DHT22;40172;53.022;7.012;2023-04-28T00:18:41;5.40;99.90
54260;DHT22;40172;53.022;7.012;2023-04-28T00:21:07;5.40;99.90
54260;DHT22;40172;53.022;7.012;2023-04-28T00:23:33;5.30;99.90
54260;DHT22;40172;53.022;7.012;2023-04-28T00:25:59;5.30;99.90
54260;DHT22;40172;53.022;7.012;2023-04-28T00:28:25;5.30;99.90
54260;DHT22;40172;53.022;7.012;2023-04-28T00:30:51;5.30;99.90
54260;DHT22;40172;53.022;7.012;2023-04-28T00:33:19;5.30;99.90
54260;DHT22;40172;53.022;7.012;2023-04-28T00:35:45;5.30;99.90
54260;DHT22;40172;53.022;7.012;2023-04-28T00:38:11;5.30;99.90
54260;DHT22;40172;53.022;7.012;2023-04-28T00:40:37;5.30;99.90
54260;DHT22;40172;53.022;7.012;2023-04-28T00:43:04;5.60;99.90
54260;DHT22;40172;53.022;7.012;2023-04-28T00:45:30;5.30;99.90
54260;DHT22;40172;53.022;7.012;2023-04-28T00:47:56;5.30;99.90
54260;DHT22;40172;53.022;7.012;2023-04-28T00:50:23;5.30;99.90
54260;DHT22;40172;53.022;7.012;2023-04-28T00:52:49;5.30;99.90
54260;DHT22;40172;53.022;7.012;2023-04-28T00:55:16;5.30;99.90
54260;DHT22;40172;53.022;7.012;2023-04-28T00:57:42;5.40;99.90
54260;DHT22;40172;53.022;7.012;2023-04-28T01:00:08;5.40;99.90
54260;DHT22;40172;53.022;7.012;2023-04-28T01:02:37;5.40;99.90
54260;DHT22;40172;53.022;7.012;2023-04-28T01:05:04;5.40;99.90
54260;DHT22;40172;53.022;7.012;2023-04-28T01:07:30;5.40;99.90
54260;DHT22;40172;53.022;7.012;2023-04-28T01:09:56;5.40;99.90
54260;DHT22;40172;53.022;7.012;2023-04-28T01:12:22;5.40;99.90
54260;DHT22;40172;53.022;7.012;2023-04-28T01:14:51;5.40;99.90
54260;DHT22;40172;53.022;7.012;2023-04-28T01:17:17;5.40;99.90
54260;DHT22;40172;53.022;7.012;2023-04-28T01:19:42;5.40;99.90
54260;DHT22;40172;53.022;7.012;2023-04-28T01:22:08;5.30;99.90
54260;DHT22;40172;53.022;7.012;2023-04-28T01:24:39;5.40;99.90
54260;DHT22;40172;53.022;7.012;2023-04-28T01:27:05;5.40;99.90
54260;DHT22;40172;53.022;7.012;2023-04-28T01:29:30;5.40;99.90
54260;DHT22;40172;53.022;7.012;2023-04-28T01:31:56;5.40;99.90
54260;DHT22;40172;53.022;7.012;2023-04-28T01:34:21;5.40;99.90
54260;DHT22;40172;53.022;7.012;2023-04-28T01:36:47;5.40;99.90
54260;DHT22;40172;53.022;7.012;2023-04-28T01:39:13;5.40;99.90
54260;DHT22;40172;53.022;7.012;2023-04-28T01:41:39;5.40;99.90
54260;DHT22;40172;53.022;7.012;2023-04-28T01:44:05;5.40;99.90
54260;DHT22;40172;53.022;7.012;2023-04-28T01:46:32;5.50;99.90
54260;DHT22;40172;53.022;7.012;2023-04-28T01:48:57;5.50;99.90
54260;DHT22;40172;53.022;7.012;2023-04-28T01:51:23;5.50;99.90
54260;DHT22;40172;53.022;7.012;2023-04-28T01:53:49;5.50;99.90
54260;DHT22;40172;53.022;7.012;2023-04-28T01:56:15;5.50;99.90
54260;DHT22;40172;53.022;7.012;2023-04-28T01:58:40;5.50;99.90
54260;DHT22;40172;53.022;7.012;2023-04-28T02:01:06;5.60;99.90
54260;DHT22;40172;53.022;7.012;2023-04-28T02:03:31;5.50;99.90
54260;DHT22;40172;53.022;7.012;2023-04-28T02:05:57;5.60;99.90
54260;DHT22;40172;53.022;7.012;2023-04-28T02:08:22;5.60;99.90
54260;DHT22;40172;53.022;7.012;2023-04-28T02:10:48;5.50;99.90
54260;DHT22;40172;53.022;7.012;2023-04-28T02:13:13;5.50;99.90
54260;DHT22;40172;53.022;7.012;2023-04-28T02:15:41;5.50;99.90
54260;DHT22;40172;53.022;7.012;2023-04-28T02:18:07;5.50;99.90
54260;DHT22;40172;53.022;7.012;2023-04-28T02:20:33;5.60;99.90
54260;DHT22;40172;53.022;7.012;2023-04-28T02:22:58;5.60;99.90
54260;DHT22;40172;53.022;7.012;2023-04-28T02:25:24;5.50;99.90
54260;DHT22;40172;53.022;7.012;2023-04-28T02:27:50;5.80;99.90
54260;DHT22;40172;53.022;7.012;2023-04-28T02:30:15;5.50;99.90
54260;DHT22;40172;53.022;7.012;2023-04-28T02:32:41;5.50;99.90
54260;DHT22;40172;53.022;7.012;2023-04-28T02:35:07;5.50;99.90
54260;DHT22;40172;53.022;7.012;2023-04-28T02:37:32;5.40;99.90
54260;DHT22;40172;53.022;7.012;2023-04-28T02:39:58;5.50;99.90
54260;DHT22;40172;53.022;7.012;2023-04-28T02:42:23;5.40;99.90
54260;DHT22;40172;53.022;7.012;2023-04-28T02:44:49;5.40;99.90
54260;DHT22;40172;53.022;7.012;2023-04-28T02:47:15;5.40;99.90
54260;DHT22;40172;53.022;7.012;2023-04-28T02:49:40;5.30;99.90
54260;DHT22;40172;53.022;7.012;2023-04-28T02:52:06;5.30;99.90
54260;DHT22;40172;53.022;7.012;2023-04-28T02:54:31;5.30;99.90
54260;DHT22;40172;53.022;7.012;2023-04-28T02:56:58;5.30;99.90
54260;DHT22;40172;53.022;7.012;2023-04-28T02:59:24;5.20;99.90
54260;DHT22;40172;53.022;7.012;2023-04-28T03:01:51;5.20;99.90
54260;DHT22;40172;53.022;7.012;2023-04-28T03:04:17;5.20;99.90
54260;DHT22;40172;53.022;7.012;2023-04-28T03:06:42;5.20;99.90
54260;DHT22;40172;53.022;7.012;2023-04-28T03:09:09;5.20;99.90
54260;DHT22;40172;53.022;7.012;2023-04-28T03:11:35;5.20;99.90
54260;DHT22;40172;53.022;7.012;2023-04-28T03:14:00;5.20;99.90
54260;DHT22;40172;53.022;7.012;2023-04-28T03:16:26;5.20;99.90
54260;DHT22;40172;53.022;7.012;2023-04-28T03:18:52;5.20;99.90
54260;DHT22;40172;53.022;7.012;2023-04-28T03:21:17;5.10;99.90
54260;DHT22;40172;53.022;7.012;2023-04-28T03:23:43;5.10;99.90
54260;DHT22;40172;53.022;7.012;2023-04-28T03:26:08;5.20;99.90
54260;DHT22;40172;53.022;7.012;2023-04-28T03:28:34;5.10;99.90
54260;DHT22;40172;53.022;7.012;2023-04-28T03:31:00;5.00;99.90
54260;DHT22;40172;53.022;7.012;2023-04-28T03:33:25;5.00;99.90
54260;DHT22;40172;53.022;7.012;2023-04-28T03:35:51;5.00;99.90
54260;DHT22;40172;53.022;7.012;2023-04-28T03:38:18;5.00;99.90
54260;DHT22;40172;53.022;7.012;2023-04-28T03:40:43;5.00;99.90
54260;DHT22;40172;53.022;7.012;2023-04-28T03:43:09;4.90;99.90
54260;DHT22;40172;53.022;7.012;2023-04-28T03:45:35;5.00;99.90
54260;DHT22;40172;53.022;7.012;2023-04-28T03:48:01;5.00;99.90
54260;DHT22;40172;53.022;7.012;2023-04-28T03:50:26;4.90;99.90
54260;DHT22;40172;53.022;7.012;2023-04-28T03:52:52;4.90;99.90
54260;DHT22;40172;53.022;7.012;2023-04-28T03:55:17;4.90;99.90
54260;DHT22;40172;53.022;7.012;2023-04-28T03:57:43;4.90;99.90
54260;DHT22;40172;53.022;7.012;2023-04-28T04:00:10;4.90;99.90
54260;DHT22;40172;53.022;7.012;2023-04-28T04:02:39;4.90;99.90
54260;DHT22;40172;53.022;7.012;2023-04-28T04:05:04;5.00;99.90
54260;DHT22;40172;53.022;7.012;2023-04-28T04:07:30;5.00;99.90
54260;DHT22;40172;53.022;7.012;2023-04-28T04:09:55;4.90;99.90
54260;DHT22;40172;53.022;7.012;2023-04-28T04:12:21;4.90;99.90
54260;DHT22;40172;53.022;7.012;2023-04-28T04:14:47;4.90;99.90
54260;DHT22;40172;53.022;7.012;2023-04-28T04:17:12;5.00;99.90
54260;DHT22;40172;53.022;7.012;2023-04-28T04:19:38;5.00;99.90
54260;DHT22;40172;53.022;7.012;2023-04-28T04:22:03;5.00;99.90
54260;DHT22;40172;53.022;7.012;2023-04-28T04:24:29;5.00;99.90
54260;DHT22;40172;53.022;7.012;2023-04-28T04:26:54;5.00;99.90
54260;DHT22;40172;53.022;7.012;2023-04-28T04:29:20;5.00;99.90
54260;DHT22;40172;53.022;7.012;2023-04-28T04:31:46;5.10;99.90
54260;DHT22;40172;53.022;7.012;2023-04-28T04:34:11;5.00;99.90
54260;DHT22;40172;53.022;7.012;2023-04-28T04:36:37;5.10;99.90
54260;DHT22;40172;53.022;7.012;2023-04-28T04:39:03;5.10;99.90
54260;DHT22;40172;53.022;7.012;2023-04-28T04:41:28;5.10;99.90
54260;DHT22;40172;53.022;7.012;2023-04-28T04:43:54;5.20;99.90
54260;DHT22;40172;53.022;7.012;2023-04-28T04:46:20;5.20;99.90
54260;DHT22;40172;53.022;7.012;2023-04-28T04:48:46;5.20;99.90
54260;DHT22;40172;53.022;7.012;2023-04-28T04:51:11;5.30;99.90
54260;DHT22;40172;53.022;7.012;2023-04-28T04:53:37;5.30;99.90
54260;DHT22;40172;53.022;7.012;2023-04-28T04:56:03;5.30;99.90
54260;DHT22;40172;53.022;7.012;2023-04-28T04:58:29;5.30;99.90
54260;DHT22;40172;53.022;7.012;2023-04-28T05:00:54;5.30;99.90
54260;DHT22;40172;53.022;7.012;2023-04-28T05:03:20;5.30;99.90
54260;DHT22;40172;53.022;7.012;2023-04-28T05:05:46;5.30;99.90
54260;DHT22;40172;53.022;7.012;2023-04-28T05:08:13;5.40;99.90
54260;DHT22;40172;53.022;7.012;2023-04-28T05:10:38;5.40;99.90
54260;DHT22;40172;53.022;7.012;2023-04-28T05:13:04;5.30;99.90
54260;DHT22;40172;53.022;7.012;2023-04-28T05:15:30;5.40;99.90
54260;DHT22;40172;53.022;7.012;2023-04-28T05:17:56;5.40;99.90
54260;DHT22;40172;53.022;7.012;2023-04-28T05:20:22;5.40;99.90
54260;DHT22;40172;53.022;7.012;2023-04-28T05:22:48;5.40;99.90
54260;DHT22;40172;53.022;7.012;2023-04-28T05:25:14;6.90;99.90
54260;DHT22;40172;53.022;7.012;2023-04-28T05:27:40;5.50;99.90
54260;DHT22;40172;53.022;7.012;2023-04-28T05:30:09;6.40;99.90
54260;DHT22;40172;53.022;7.012;2023-04-28T05:32:36;5.50;99.90
54260;DHT22;40172;53.022;7.012;2023-04-28T05:35:01;5.60;99.90
54260;DHT22;40172;53.022;7.012;2023-04-28T05:37:27;5.60;99.90
54260;DHT22;40172;53.022;7.012;2023-04-28T05:39:53;5.60;99.90
54260;DHT22;40172;53.022;7.012;2023-04-28T05:42:19;5.70;99.90
54260;DHT22;40172;53.022;7.012;2023-04-28T05:44:44;5.80;99.90
54260;DHT22;40172;53.022;7.012;2023-04-28T05:47:10;5.80;99.90
54260;DHT22;40172;53.022;7.012;2023-04-28T05:49:36;5.80;99.90
54260;DHT22;40172;53.022;7.012;2023-04-28T05:52:02;5.90;99.90
54260;DHT22;40172;53.022;7.012;2023-04-28T05:54:28;6.00;99.90
54260;DHT22;40172;53.022;7.012;2023-04-28T05:56:53;6.00;99.90
54260;DHT22;40172;53.022;7.012;2023-04-28T05:59:19;6.10;99.90
54260;DHT22;40172;53.022;7.012;2023-04-28T06:01:45;6.30;99.90
54260;DHT22;40172;53.022;7.012;2023-04-28T06:04:10;6.40;99.90
54260;DHT22;40172;53.022;7.012;2023-04-28T06:06:36;6.50;99.90
54260;DHT22;40172;53.022;7.012;2023-04-28T06:09:02;6.60;99.90
54260;DHT22;40172;53.022;7.012;2023-04-28T06:11:28;6.60;99.90
54260;DHT22;40172;53.022;7.012;2023-04-28T06:13:53;6.70;99.90
54260;DHT22;40172;53.022;7.012;2023-04-28T06:16:19;6.80;99.90
54260;DHT22;40172;53.022;7.012;2023-04-28T06:18:46;6.80;99.90
54260;DHT22;40172;53.022;7.012;2023-04-28T06:21:12;6.90;99.90
54260;DHT22;40172;53.022;7.012;2023-04-28T06:23:38;6.90;99.90
54260;DHT22;40172;53.022;7.012;2023-04-28T06:26:05;7.00;99.90
54260;DHT22;40172;53.022;7.012;2023-04-28T06:28:30;7.10;99.90
54260;DHT22;40172;53.022;7.012;2023-04-28T06:30:56;7.10;99.90
54260;DHT22;40172;53.022;7.012;2023-04-28T06:33:24;7.30;99.90
54260;DHT22;40172;53.022;7.012;2023-04-28T06:35:49;7.30;99.90
54260;DHT22;40172;53.022;7.012;2023-04-28T06:38:15;7.40;99.90
54260;DHT22;40172;53.022;7.012;2023-04-28T06:40:40;7.40;99.90
54260;DHT22;40172;53.022;7.012;2023-04-28T06:43:06;7.50;99.90
54260;DHT22;40172;53.022;7.012;2023-04-28T06:45:31;7.60;99.90
54260;DHT22;40172;53.022;7.012;2023-04-28T06:47:57;7.60;99.90
54260;DHT22;40172;53.022;7.012;2023-04-28T06:50:23;7.60;99.90
54260;DHT22;40172;53.022;7.012;2023-04-28T06:52:49;7.60;99.90
54260;DHT22;40172;53.022;7.012;2023-04-28T06:55:15;7.70;99.90
54260;DHT22;40172;53.022;7.012;2023-04-28T06:57:42;7.60;99.90
54260;DHT22;40172;53.022;7.012;2023-04-28T07:00:08;7.60;99.90
54260;DHT22;40172;53.022;7.012;2023-04-28T07:02:35;7.60;99.90
54260;DHT22;40172;53.022;7.012;2023-04-28T07:05:01;7.60;99.90
54260;DHT22;40172;53.022;7.012;2023-04-28T07:07:28;7.60;99.90
54260;DHT22;40172;53.022;7.012;2023-04-28T07:09:53;7.60;99.90
54260;DHT22;40172;53.022;7.012;2023-04-28T07:12:20;7.70;99.90
54260;DHT22;40172;53.022;7.012;2023-04-28T07:14:46;7.70;99.90
54260;DHT22;40172;53.022;7.012;2023-04-28T07:17:11;7.70;99.90
54260;DHT22;40172;53.022;7.012;2023-04-28T07:19:37;7.80;99.90
54260;DHT22;40172;53.022;7.012;2023-04-28T07:22:02;7.80;99.90
54260;DHT22;40172;53.022;7.012;2023-04-28T07:24:28;7.90;99.90
54260;DHT22;40172;53.022;7.012;2023-04-28T07:26:55;7.90;99.90
54260;DHT22;40172;53.022;7.012;2023-04-28T07:29:21;7.90;99.90
54260;DHT22;40172;53.022;7.012;2023-04-28T07:31:47;7.90;99.90
54260;DHT22;40172;53.022;7.012;2023-04-28T07:34:13;8.00;99.90
54260;DHT22;40172;53.022;7.012;2023-04-28T07:36:39;8.20;99.90
54260;DHT22;40172;53.022;7.012;2023-04-28T07:39:04;8.20;99.90
54260;DHT22;40172;53.022;7.012;2023-04-28T07:41:35;8.40;99.90
54260;DHT22;40172;53.022;7.012;2023-04-28T07:44:01;8.50;99.90
54260;DHT22;40172;53.022;7.012;2023-04-28T07:46:26;8.60;99.90
54260;DHT22;40172;53.022;7.012;2023-04-28T07:48:53;8.70;99.90
54260;DHT22;40172;53.022;7.012;2023-04-28T07:51:18;8.80;99.90
54260;DHT22;40172;53.022;7.012;2023-04-28T07:53:44;8.90;99.90
54260;DHT22;40172;53.022;7.012;2023-04-28T07:56:09;8.90;99.90
54260;DHT22;40172;53.022;7.012;2023-04-28T07:58:36;9.00;99.90
54260;DHT22;40172;53.022;7.012;2023-04-28T08:01:02;9.00;99.90
54260;DHT22;40172;53.022;7.012;2023-04-28T08:03:27;9.10;99.90
54260;DHT22;40172;53.022;7.012;2023-04-28T08:05:53;9.20;99.90
54260;DHT22;40172;53.022;7.012;2023-04-28T08:08:18;9.20;99.90
54260;DHT22;40172;53.022;7.012;2023-04-28T08:10:44;9.30;99.90
54260;DHT22;40172;53.022;7.012;2023-04-28T08:13:10;9.40;99.90
54260;DHT22;40172;53.022;7.012;2023-04-28T08:15:35;9.40;99.90
54260;DHT22;40172;53.022;7.012;2023-04-28T08:18:01;9.50;99.90
54260;DHT22;40172;53.022;7.012;2023-04-28T08:20:27;9.60;99.90
54260;DHT22;40172;53.022;7.012;2023-04-28T08:22:53;9.60;99.90
54260;DHT22;40172;53.022;7.012;2023-04-28T08:25:19;9.70;99.90
54260;DHT22;40172;53.022;7.012;2023-04-28T08:27:44;9.80;99.90
54260;DHT22;40172;53.022;7.012;2023-04-28T08:30:10;9.90;99.90
54260;DHT22;40172;53.022;7.012;2023-04-28T08:32:36;11.00;99.90
54260;DHT22;40172;53.022;7.012;2023-04-28T08:35:02;9.90;99.90
54260;DHT22;40172;53.022;7.012;2023-04-28T08:37:29;10.00;99.90
54260;DHT22;40172;53.022;7.012;2023-04-28T08:39:55;10.10;99.90
54260;DHT22;40172;53.022;7.012;2023-04-28T08:42:30;10.10;99.90
54260;DHT22;40172;53.022;7.012;2023-04-28T08:44:57;10.20;99.90
54260;DHT22;40172;53.022;7.012;2023-04-28T08:47:34;10.30;99.90
54260;DHT22;40172;53.022;7.012;2023-04-28T08:50:05;10.40;99.90
54260;DHT22;40172;53.022;7.012;2023-04-28T08:52:32;10.60;99.90
54260;DHT22;40172;53.022;7.012;2023-04-28T08:54:59;10.70;99.90
54260;DHT22;40172;53.022;7.012;2023-04-28T08:57:26;10.90;99.90
54260;DHT22;40172;53.022;7.012;2023-04-28T08:59:53;11.00;99.90
54260;DHT22;40172;53.022;7.012;2023-04-28T09:02:18;11.10;99.90
54260;DHT22;40172;53.022;7.012;2023-04-28T09:04:46;11.20;99.90
54260;DHT22;40172;53.022;7.012;2023-04-28T09:07:12;11.20;99.90
54260;DHT22;40172;53.022;7.012;2023-04-28T09:09:38;11.40;99.90
54260;DHT22;40172;53.022;7.012;2023-04-28T09:12:05;11.50;99.90
54260;DHT22;40172;53.022;7.012;2023-04-28T09:14:33;11.60;99.90
54260;DHT22;40172;53.022;7.012;2023-04-28T09:17:00;11.70;99.90
54260;DHT22;40172;53.022;7.012;2023-04-28T09:19:33;11.70;99.90
54260;DHT22;40172;53.022;7.012;2023-04-28T09:22:00;11.70;99.90
54260;DHT22;40172;53.022;7.012;2023-04-28T09:24:31;11.80;99.90
54260;DHT22;40172;53.022;7.012;2023-04-28T09:27:02;11.90;99.90
54260;DHT22;40172;53.022;7.012;2023-04-28T09:29:29;12.00;99.90
54260;DHT22;40172;53.022;7.012;2023-04-28T09:32:19;12.10;99.90
54260;DHT22;40172;53.022;7.012;2023-04-28T09:34:48;12.20;99.90
54260;DHT22;40172;53.022;7.012;2023-04-28T09:37:20;12.30;99.90
54260;DHT22;40172;53.022;7.012;2023-04-28T09:39:48;12.40;99.90
54260;DHT22;40172;53.022;7.012;2023-04-28T09:44:56;12.50;99.90
54260;DHT22;40172;53.022;7.012;2023-04-28T09:47:22;12.60;99.90
54260;DHT22;40172;53.022;7.012;2023-04-28T09:49:56;12.70;99.90
54260;DHT22;40172;53.022;7.012;2023-04-28T09:52:23;12.90;99.90
54260;DHT22;40172;53.022;7.012;2023-04-28T09:54:49;13.20;99.90
54260;DHT22;40172;53.022;7.012;2023-04-28T09:57:16;13.50;99.90
54260;DHT22;40172;53.022;7.012;2023-04-28T09:59:48;13.80;99.90
54260;DHT22;40172;53.022;7.012;2023-04-28T10:02:15;13.90;99.90
54260;DHT22;40172;53.022;7.012;2023-04-28T10:04:45;14.00;99.90
54260;DHT22;40172;53.022;7.012;2023-04-28T10:07:12;14.10;99.90
54260;DHT22;40172;53.022;7.012;2023-04-28T10:09:39;14.30;99.90
54260;DHT22;40172;53.022;7.012;2023-04-28T10:12:09;14.20;99.90
54260;DHT22;40172;53.022;7.012;2023-04-28T10:14:36;14.10;99.90
54260;DHT22;40172;53.022;7.012;2023-04-28T10:17:03;14.10;99.90
54260;DHT22;40172;53.022;7.012;2023-04-28T10:19:30;14.10;99.90
54260;DHT22;40172;53.022;7.012;2023-04-28T10:24:52;14.30;99.90
54260;DHT22;40172;53.022;7.012;2023-04-28T10:27:28;14.40;99.90
54260;DHT22;40172;53.022;7.012;2023-04-28T10:30:15;14.70;99.90
54260;DHT22;40172;53.022;7.012;2023-04-28T10:32:41;14.80;99.90
54260;DHT22;40172;53.022;7.012;2023-04-28T10:38:06;14.90;99.90
54260;DHT22;40172;53.022;7.012;2023-04-28T10:40:33;15.20;99.90
54260;DHT22;40172;53.022;7.012;2023-04-28T10:42:59;15.40;99.90
54260;DHT22;40172;53.022;7.012;2023-04-28T10:45:57;15.50;99.90
54260;DHT22;40172;53.022;7.012;2023-04-28T10:58:39;15.50;99.90
54260;DHT22;40172;53.022;7.012;2023-04-28T11:04:06;15.40;99.90
54260;DHT22;40172;53.022;7.012;2023-04-28T11:06:40;15.20;99.90
54260;DHT22;40172;53.022;7.012;2023-04-28T11:16:56;15.90;99.90
54260;DHT22;40172;53.022;7.012;2023-04-28T11:19:26;16.00;99.90
54260;DHT22;40172;53.022;7.012;2023-04-28T11:21:54;15.90;99.90
54260;DHT22;40172;53.022;7.012;2023-04-28T11:24:21;15.90;99.90
54260;DHT22;40172;53.022;7.012;2023-04-28T11:26:48;15.70;99.90
54260;DHT22;40172;53.022;7.012;2023-04-28T11:29:14;15.70;99.90
54260;DHT22;40172;53.022;7.012;2023-04-28T11:31:40;15.70;99.90
54260;DHT22;40172;53.022;7.012;2023-04-28T11:34:18;15.70;99.90
54260;DHT22;40172;53.022;7.012;2023-04-28T11:36:44;15.60;99.90
54260;DHT22;40172;53.022;7.012;2023-04-28T11:39:11;15.70;99.90
54260;DHT22;40172;53.022;7.012;2023-04-28T11:41:46;15.70;99.90
54260;DHT22;40172;53.022;7.012;2023-04-28T11:44:13;15.70;99.90
54260;DHT22;40172;53.022;7.012;2023-04-28T11:46:51;15.90;99.90
54260;DHT22;40172;53.022;7.012;2023-04-28T11:49:21;16.00;99.90
54260;DHT22;40172;53.022;7.012;2023-04-28T11:51:49;16.00;99.90
54260;DHT22;40172;53.022;7.012;2023-04-28T11:54:22;16.10;99.90
54260;DHT22;40172;53.022;7.012;2023-04-28T11:56:48;16.20;99.90
54260;DHT22;40172;53.022;7.012;2023-04-28T11:59:14;16.20;99.90
54260;DHT22;40172;53.022;7.012;2023-04-28T12:01:47;16.30;99.90
54260;DHT22;40172;53.022;7.012;2023-04-28T12:04:29;16.40;99.90
54260;DHT22;40172;53.022;7.012;2023-04-28T12:07:07;16.30;99.90
54260;DHT22;40172;53.022;7.012;2023-04-28T12:09:45;16.30;99.90
54260;DHT22;40172;53.022;7.012;2023-04-28T12:12:13;16.10;99.90
54260;DHT22;40172;53.022;7.012;2023-04-28T12:14:56;15.90;99.90
54260;DHT22;40172;53.022;7.012;2023-04-28T12:17:42;15.80;99.90
54260;DHT22;40172;53.022;7.012;2023-04-28T12:20:10;16.30;99.90
54260;DHT22;40172;53.022;7.012;2023-04-28T12:22:49;15.60;99.90
54260;DHT22;40172;53.022;7.012;2023-04-28T12:25:17;15.60;99.90
54260;DHT22;40172;53.022;7.012;2023-04-28T12:28:03;15.70;99.90
54260;DHT22;40172;53.022;7.012;2023-04-28T12:30:34;15.90;99.90
54260;DHT22;40172;53.022;7.012;2023-04-28T12:33:03;16.10;99.90
54260;DHT22;40172;53.022;7.012;2023-04-28T12:35:28;16.30;99.90
54260;DHT22;40172;53.022;7.012;2023-04-28T12:37:55;16.50;99.90
54260;DHT22;40172;53.022;7.012;2023-04-28T12:40:21;16.70;99.90
54260;DHT22;40172;53.022;7.012;2023-04-28T12:42:47;16.80;99.90
54260;DHT22;40172;53.022;7.012;2023-04-28T12:45:13;16.90;99.90
54260;DHT22;40172;53.022;7.012;2023-04-28T12:47:40;17.00;99.90
54260;DHT22;40172;53.022;7.012;2023-04-28T12:50:06;17.00;99.90
54260;DHT22;40172;53.022;7.012;2023-04-28T12:52:33;17.00;99.90
54260;DHT22;40172;53.022;7.012;2023-04-28T12:55:00;16.90;99.90
54260;DHT22;40172;53.022;7.012;2023-04-28T12:57:25;16.70;99.90
54260;DHT22;40172;53.022;7.012;2023-04-28T12:59:51;16.50;99.90
54260;DHT22;40172;53.022;7.012;2023-04-28T13:02:17;16.20;99.90
54260;DHT22;40172;53.022;7.012;2023-04-28T13:04:43;16.10;99.90
54260;DHT22;40172;53.022;7.012;2023-04-28T13:07:11;16.10;99.90
54260;DHT22;40172;53.022;7.012;2023-04-28T13:09:37;16.20;99.90
54260;DHT22;40172;53.022;7.012;2023-04-28T13:12:03;16.20;99.90
54260;DHT22;40172;53.022;7.012;2023-04-28T13:14:29;16.40;99.90
54260;DHT22;40172;53.022;7.012;2023-04-28T13:16:55;16.50;99.90
54260;DHT22;40172;53.022;7.012;2023-04-28T13:19:22;16.40;99.90
54260;DHT22;40172;53.022;7.012;2023-04-28T13:21:48;16.30;99.90
54260;DHT22;40172;53.022;7.012;2023-04-28T13:24:13;16.20;99.90
54260;DHT22;40172;53.022;7.012;2023-04-28T13:26:39;16.10;99.90
54260;DHT22;40172;53.022;7.012;2023-04-28T13:29:05;16.00;99.90
54260;DHT22;40172;53.022;7.012;2023-04-28T13:31:33;15.80;99.90
54260;DHT22;40172;53.022;7.012;2023-04-28T13:33:59;15.70;99.90
54260;DHT22;40172;53.022;7.012;2023-04-28T13:36:30;15.70;99.90
54260;DHT22;40172;53.022;7.012;2023-04-28T13:38:55;15.80;99.90
54260;DHT22;40172;53.022;7.012;2023-04-28T13:41:21;15.80;99.90
54260;DHT22;40172;53.022;7.012;2023-04-28T13:43:47;15.80;99.90
54260;DHT22;40172;53.022;7.012;2023-04-28T13:46:13;15.70;99.90
54260;DHT22;40172;53.022;7.012;2023-04-28T13:48:39;15.60;99.90
54260;DHT22;40172;53.022;7.012;2023-04-28T13:51:06;15.40;99.90
54260;DHT22;40172;53.022;7.012;2023-04-28T13:53:32;15.40;99.90
54260;DHT22;40172;53.022;7.012;2023-04-28T13:55:58;15.20;99.90
54260;DHT22;40172;53.022;7.012;2023-04-28T13:58:25;15.10;99.90
54260;DHT22;40172;53.022;7.012;2023-04-28T14:00:52;15.00;99.90
54260;DHT22;40172;53.022;7.012;2023-04-28T14:03:18;14.90;99.90
54260;DHT22;40172;53.022;7.012;2023-04-28T14:05:53;15.10;99.90
54260;DHT22;40172;53.022;7.012;2023-04-28T14:08:19;14.60;99.90
54260;DHT22;40172;53.022;7.012;2023-04-28T14:10:45;14.40;99.90
54260;DHT22;40172;53.022;7.012;2023-04-28T14:13:11;14.20;99.90
54260;DHT22;40172;53.022;7.012;2023-04-28T14:15:37;14.10;99.90
54260;DHT22;40172;53.022;7.012;2023-04-28T14:18:03;14.10;99.90
54260;DHT22;40172;53.022;7.012;2023-04-28T14:20:29;14.10;99.90
54260;DHT22;40172;53.022;7.012;2023-04-28T14:22:55;14.00;99.90
54260;DHT22;40172;53.022;7.012;2023-04-28T14:25:21;14.00;99.90
54260;DHT22;40172;53.022;7.012;2023-04-28T14:27:48;14.00;99.90
54260;DHT22;40172;53.022;7.012;2023-04-28T14:30:14;14.10;99.90
54260;DHT22;40172;53.022;7.012;2023-04-28T14:32:40;14.00;99.90
54260;DHT22;40172;53.022;7.012;2023-04-28T14:35:06;14.00;99.90
54260;DHT22;40172;53.022;7.012;2023-04-28T14:37:32;14.00;99.90
54260;DHT22;40172;53.022;7.012;2023-04-28T14:39:58;14.00;99.90
54260;DHT22;40172;53.022;7.012;2023-04-28T14:42:28;13.90;99.90
54260;DHT22;40172;53.022;7.012;2023-04-28T14:44:56;13.90;99.90
54260;DHT22;40172;53.022;7.012;2023-04-28T14:47:21;13.90;99.90
54260;DHT22;40172;53.022;7.012;2023-04-28T14:49:47;13.90;99.90
54260;DHT22;40172;53.022;7.012;2023-04-28T14:52:13;13.90;99.90
54260;DHT22;40172;53.022;7.012;2023-04-28T14:54:39;13.90;99.90
54260;DHT22;40172;53.022;7.012;2023-04-28T14:57:04;13.90;99.90
54260;DHT22;40172;53.022;7.012;2023-04-28T14:59:31;13.90;99.90
54260;DHT22;40172;53.022;7.012;2023-04-28T15:01:56;13.90;99.90
54260;DHT22;40172;53.022;7.012;2023-04-28T15:04:22;13.80;99.90
54260;DHT22;40172;53.022;7.012;2023-04-28T15:06:54;13.80;99.90
54260;DHT22;40172;53.022;7.012;2023-04-28T15:09:20;13.80;99.90
54260;DHT22;40172;53.022;7.012;2023-04-28T15:11:46;13.70;99.90
54260;DHT22;40172;53.022;7.012;2023-04-28T15:14:12;13.70;99.90
54260;DHT22;40172;53.022;7.012;2023-04-28T15:16:38;13.70;99.90
54260;DHT22;40172;53.022;7.012;2023-04-28T15:19:04;13.70;99.90
54260;DHT22;40172;53.022;7.012;2023-04-28T15:21:30;13.60;99.90
54260;DHT22;40172;53.022;7.012;2023-04-28T15:23:56;13.60;99.90
54260;DHT22;40172;53.022;7.012;2023-04-28T15:26:24;13.50;99.90
54260;DHT22;40172;53.022;7.012;2023-04-28T15:28:50;13.50;99.90
54260;DHT22;40172;53.022;7.012;2023-04-28T15:31:16;13.50;99.90
54260;DHT22;40172;53.022;7.012;2023-04-28T15:33:41;13.40;99.90
54260;DHT22;40172;53.022;7.012;2023-04-28T15:36:07;13.40;99.90
54260;DHT22;40172;53.022;7.012;2023-04-28T15:38:33;13.40;99.90
54260;DHT22;40172;53.022;7.012;2023-04-28T15:40:59;13.30;99.90
54260;DHT22;40172;53.022;7.012;2023-04-28T15:43:25;13.30;99.90
54260;DHT22;40172;53.022;7.012;2023-04-28T15:45:51;13.20;99.90
54260;DHT22;40172;53.022;7.012;2023-04-28T15:48:20;13.20;99.90
54260;DHT22;40172;53.022;7.012;2023-04-28T15:50:47;13.20;99.90
54260;DHT22;40172;53.022;7.012;2023-04-28T15:53:13;13.20;99.90
54260;DHT22;40172;53.022;7.012;2023-04-28T15:55:38;13.10;99.90
54260;DHT22;40172;53.022;7.012;2023-04-28T15:58:04;13.10;99.90
54260;DHT22;40172;53.022;7.012;2023-04-28T16:00:29;13.10;99.90
54260;DHT22;40172;53.022;7.012;2023-04-28T16:02:55;13.10;99.90
54260;DHT22;40172;53.022;7.012;2023-04-28T16:05:21;13.10;99.90
54260;DHT22;40172;53.022;7.012;2023-04-28T16:07:46;13.10;99.90